createdAt,value
2017-10-20T00:01:02.443Z,61.90
2017-10-20T00:05:58.852Z,61.80
2017-10-20T00:08:27.136Z,61.70
2017-10-20T00:10:54.641Z,61.60
2017-10-20T00:13:22.928Z,62.30
2017-10-20T00:15:50.820Z,61.80
2017-10-20T00:18:18.315Z,62.20
2017-10-20T00:20:47.316Z,62.70
2017-10-20T00:23:15.214Z,62.10
2017-10-20T00:25:42.740Z,62.20
2017-10-20T00:28:10.661Z,62.10
2017-10-20T00:30:38.926Z,62.00
2017-10-20T00:33:06.440Z,62.20
2017-10-20T00:35:33.937Z,62.50
2017-10-20T00:38:02.220Z,62.40
2017-10-20T00:40:29.744Z,62.50
2017-10-20T00:42:57.343Z,62.80
2017-10-20T00:45:24.852Z,63.00
2017-10-20T00:47:52.387Z,63.20
2017-10-20T00:50:21.027Z,63.20
2017-10-20T00:52:48.527Z,63.10
2017-10-20T00:55:16.799Z,63.70
2017-10-20T00:57:45.068Z,64.00
2017-10-20T01:00:13.340Z,63.80
2017-10-20T01:02:40.851Z,63.20
2017-10-20T01:05:08.756Z,63.20
2017-10-20T01:07:36.247Z,63.00
2017-10-20T01:10:04.171Z,63.00
2017-10-20T01:12:31.663Z,63.20
2017-10-20T01:14:59.187Z,63.20
2017-10-20T01:17:27.090Z,63.20
2017-10-20T01:19:54.621Z,63.20
2017-10-20T01:22:23.252Z,63.20
2017-10-20T01:24:50.777Z,63.20
2017-10-20T01:27:18.292Z,63.30
2017-10-20T01:29:45.811Z,63.10
2017-10-20T01:32:14.344Z,63.20
2017-10-20T01:34:42.608Z,63.10
2017-10-20T01:37:10.109Z,63.30
2017-10-20T01:39:38.370Z,63.30
2017-10-20T01:42:06.283Z,63.30
2017-10-20T01:44:33.781Z,63.10
2017-10-20T01:49:30.915Z,62.80
2017-10-20T01:51:58.803Z,62.70
2017-10-20T01:54:26.303Z,62.90
2017-10-20T01:56:53.824Z,63.10
2017-10-20T01:59:21.329Z,63.30
2017-10-20T02:04:17.731Z,63.10
2017-10-20T02:09:14.126Z,63.10
2017-10-20T02:11:41.632Z,62.90
2017-10-20T02:14:09.140Z,63.00
2017-10-20T02:16:37.406Z,63.20
2017-10-20T02:19:04.911Z,63.10
2017-10-20T02:21:32.423Z,63.10
2017-10-20T02:24:00.696Z,62.90
2017-10-20T02:26:28.203Z,62.70
2017-10-20T02:28:56.843Z,62.30
2017-10-20T02:31:25.119Z,63.10
2017-10-20T02:33:54.148Z,62.60
2017-10-20T02:36:21.638Z,62.50
2017-10-20T02:38:49.552Z,62.40
2017-10-20T02:41:17.048Z,63.70
2017-10-20T02:43:44.569Z,63.80
2017-10-20T02:46:12.067Z,64.00
2017-10-20T02:48:39.581Z,64.10
2017-10-20T02:51:07.077Z,64.20
2017-10-20T02:53:34.568Z,64.10
2017-10-20T02:56:02.464Z,64.10
2017-10-20T02:58:30.776Z,63.80
2017-10-20T03:00:59.052Z,64.00
2017-10-20T03:03:26.561Z,64.10
2017-10-20T03:05:54.059Z,64.10
2017-10-20T03:08:21.560Z,64.10
2017-10-20T03:16:38.903Z,64.10
2017-10-20T03:19:06.408Z,64.20
2017-10-20T03:21:33.908Z,64.30
2017-10-20T03:24:01.399Z,64.20
2017-10-20T03:26:28.891Z,64.10
2017-10-20T03:28:56.384Z,63.80
2017-10-20T03:31:24.665Z,63.70
2017-10-20T03:33:52.155Z,63.90
2017-10-20T03:36:19.668Z,64.40
2017-10-20T03:38:47.177Z,65.00
2017-10-20T03:41:15.087Z,65.20
2017-10-20T03:43:42.587Z,65.50
2017-10-20T03:46:10.103Z,65.50
2017-10-20T03:48:37.996Z,65.40
2017-10-20T03:51:05.520Z,65.50
2017-10-20T03:53:33.800Z,65.40
2017-10-20T03:56:01.317Z,65.40
2017-10-20T03:58:28.817Z,65.40
2017-10-20T04:00:56.319Z,65.70
2017-10-20T04:03:24.584Z,66.20
2017-10-20T04:05:52.094Z,65.50
2017-10-20T04:10:48.857Z,65.30
2017-10-20T04:13:17.147Z,65.30
2017-10-20T04:15:44.639Z,65.30
2017-10-20T04:18:12.161Z,65.10
2017-10-20T04:20:39.660Z,65.10
2017-10-20T04:23:07.936Z,65.80
2017-10-20T04:25:35.826Z,65.20
2017-10-20T04:28:03.340Z,65.30
2017-10-20T04:30:30.836Z,65.30
2017-10-20T04:32:58.351Z,65.30
2017-10-20T04:35:26.612Z,66.00
2017-10-20T04:37:54.129Z,65.40
2017-10-20T04:40:21.631Z,65.30
2017-10-20T04:42:49.887Z,65.90
2017-10-20T04:45:17.779Z,65.00
2017-10-20T04:47:46.795Z,65.00
2017-10-20T04:50:14.319Z,65.10
2017-10-20T04:52:42.605Z,65.60
2017-10-20T04:55:10.119Z,65.10
2017-10-20T04:57:37.613Z,65.00
2017-10-20T05:00:05.140Z,65.00
2017-10-20T05:02:33.037Z,64.90
2017-10-20T05:05:00.553Z,64.80
2017-10-20T05:07:28.057Z,65.00
2017-10-20T05:09:55.588Z,65.00
2017-10-20T05:12:23.087Z,65.10
2017-10-20T05:17:19.874Z,64.90
2017-10-20T05:19:48.144Z,64.90
2017-10-20T05:22:15.640Z,65.00
2017-10-20T05:24:43.536Z,65.00
2017-10-20T05:27:11.043Z,65.30
2017-10-20T05:29:39.762Z,65.40
2017-10-20T05:32:07.254Z,65.50
2017-10-20T05:34:34.740Z,65.50
2017-10-20T05:37:02.999Z,66.20
2017-10-20T05:39:31.287Z,66.20
2017-10-20T05:41:59.187Z,65.60
2017-10-20T05:44:27.439Z,65.60
2017-10-20T05:46:55.351Z,65.30
2017-10-20T05:49:23.244Z,65.50
2017-10-20T05:51:50.759Z,65.70
2017-10-20T05:54:19.020Z,65.50
2017-10-20T05:56:47.319Z,65.30
2017-10-20T05:59:14.811Z,65.50
2017-10-20T06:01:43.102Z,66.20
2017-10-20T06:04:10.609Z,65.80
2017-10-20T06:06:38.132Z,65.80
2017-10-20T06:09:05.639Z,66.00
2017-10-20T06:11:34.271Z,66.00
2017-10-20T06:14:01.783Z,66.00
2017-10-20T06:16:30.791Z,66.20
2017-10-20T06:18:58.299Z,66.20
2017-10-20T06:21:25.795Z,66.20
2017-10-20T06:23:54.431Z,66.10
2017-10-20T06:26:22.951Z,66.10
2017-10-20T06:28:50.481Z,66.10
2017-10-20T06:31:18.000Z,66.20
2017-10-20T06:33:45.520Z,66.10
2017-10-20T06:38:41.891Z,66.10
2017-10-20T06:41:09.407Z,66.10
2017-10-20T06:43:36.954Z,65.00
2017-10-20T06:46:05.218Z,65.50
2017-10-20T06:48:34.437Z,64.90
2017-10-20T06:51:01.931Z,64.70
2017-10-20T06:53:29.458Z,64.70
2017-10-20T06:55:56.952Z,64.60
2017-10-20T06:58:25.263Z,64.40
2017-10-20T07:03:21.681Z,63.50
2017-10-20T07:05:50.692Z,63.10
2017-10-20T07:08:19.723Z,63.20
2017-10-20T07:10:47.982Z,63.70
2017-10-20T07:13:15.480Z,63.60
2017-10-20T07:15:42.992Z,63.30
2017-10-20T07:18:23.203Z,63.80
2017-10-20T07:20:52.491Z,64.10
2017-10-20T07:23:20.396Z,63.50
2017-10-20T07:25:47.916Z,64.10
2017-10-20T07:28:15.424Z,64.50
2017-10-20T07:30:43.736Z,64.90
2017-10-20T07:35:40.884Z,65.30
2017-10-20T07:38:08.394Z,65.90
2017-10-20T07:40:35.919Z,66.10
2017-10-20T07:43:03.411Z,66.50
2017-10-20T07:45:30.942Z,66.40
2017-10-20T07:47:58.454Z,66.10
2017-10-20T07:50:25.975Z,65.70
2017-10-20T07:52:54.243Z,66.40
2017-10-20T07:55:23.279Z,65.60
2017-10-20T07:57:51.547Z,66.10
2017-10-20T08:00:19.052Z,66.20
2017-10-20T08:02:46.955Z,66.10
2017-10-20T08:05:14.457Z,65.80
2017-10-20T08:07:41.983Z,65.30
2017-10-20T08:10:09.495Z,64.40
2017-10-20T08:12:38.154Z,63.70
2017-10-20T08:15:06.455Z,62.70
2017-10-20T08:17:35.016Z,63.10
2017-10-20T08:20:02.523Z,62.50
2017-10-20T08:22:30.454Z,61.70
2017-10-20T08:24:59.099Z,60.70
2017-10-20T08:27:26.613Z,59.90
2017-10-20T08:29:54.127Z,60.00
2017-10-20T08:32:21.649Z,59.50
2017-10-20T08:34:50.284Z,58.70
2017-10-20T08:37:17.827Z,58.40
2017-10-20T08:39:45.319Z,57.80
2017-10-20T08:42:12.819Z,57.70
2017-10-20T08:44:41.088Z,57.10
2017-10-20T08:47:08.582Z,56.80
2017-10-20T08:49:36.495Z,56.40
2017-10-20T08:52:05.122Z,55.60
2017-10-20T08:57:01.541Z,55.40
2017-10-20T08:59:29.836Z,55.90
2017-10-20T09:01:58.107Z,56.20
2017-10-20T09:04:26.395Z,55.90
2017-10-20T09:06:53.891Z,55.30
2017-10-20T09:09:21.427Z,54.60
2017-10-20T09:11:48.931Z,54.30
2017-10-20T09:14:16.446Z,54.20
2017-10-20T09:16:45.457Z,54.10
2017-10-20T09:19:12.980Z,54.60
2017-10-20T09:21:41.992Z,54.40
2017-10-20T09:24:10.306Z,54.40
2017-10-20T09:26:38.575Z,54.50
2017-10-20T09:29:06.859Z,53.60
2017-10-20T09:31:34.775Z,54.00
2017-10-20T09:34:03.076Z,54.10
2017-10-20T09:36:30.603Z,53.70
2017-10-20T09:38:58.111Z,54.10
2017-10-20T09:41:26.784Z,53.60
2017-10-20T09:43:55.788Z,53.50
2017-10-20T09:46:23.683Z,53.30
2017-10-20T09:48:51.955Z,53.10
2017-10-20T09:51:19.453Z,53.00
2017-10-20T09:53:48.104Z,52.10
2017-10-20T09:56:15.620Z,52.00
2017-10-20T09:58:43.514Z,52.10
2017-10-20T10:01:11.007Z,52.10
2017-10-20T10:03:38.502Z,52.20
2017-10-20T10:06:05.999Z,52.00
2017-10-20T10:08:33.901Z,51.60
2017-10-20T10:11:01.403Z,51.40
2017-10-20T10:13:29.291Z,51.50
2017-10-20T10:15:58.290Z,51.00
2017-10-20T10:18:26.309Z,50.60
2017-10-20T10:20:53.807Z,50.70
2017-10-20T10:23:21.306Z,50.60
2017-10-20T10:25:48.799Z,50.40
2017-10-20T10:28:16.690Z,49.10
2017-10-20T10:30:45.340Z,49.30
2017-10-20T10:33:14.348Z,49.50
2017-10-20T10:35:43.375Z,49.70
2017-10-20T10:38:12.386Z,49.00
2017-10-20T10:40:41.021Z,49.70
2017-10-20T10:43:08.528Z,48.20
2017-10-20T10:45:37.539Z,47.50
2017-10-20T10:48:05.033Z,47.30
2017-10-20T10:50:34.063Z,47.00
2017-10-20T10:53:01.606Z,47.20
2017-10-20T10:55:29.882Z,45.80
2017-10-20T10:57:57.799Z,47.10
2017-10-20T11:00:25.347Z,46.40
2017-10-20T11:02:52.849Z,47.50
2017-10-20T11:05:32.213Z,47.70
2017-10-20T11:08:13.200Z,46.40
2017-10-20T11:10:52.519Z,46.60
2017-10-20T11:13:20.783Z,46.70
2017-10-20T11:15:48.279Z,47.30
2017-10-20T11:18:17.290Z,47.10
2017-10-20T11:20:45.571Z,47.40
2017-10-20T11:23:13.472Z,48.30
2017-10-20T11:25:40.964Z,48.50
2017-10-20T11:28:08.473Z,48.60
2017-10-20T11:30:35.972Z,48.30
2017-10-20T11:33:04.245Z,47.60
2017-10-20T11:35:31.753Z,46.50
2017-10-20T11:37:59.260Z,47.10
2017-10-20T11:40:26.798Z,48.00
2017-10-20T11:42:55.803Z,47.10
2017-10-20T11:45:23.707Z,48.00
2017-10-20T11:47:51.211Z,47.70
2017-10-20T11:50:19.489Z,47.40
2017-10-20T11:52:46.991Z,46.10
2017-10-20T11:55:14.499Z,46.70
2017-10-20T11:57:42.391Z,46.70
2017-10-20T12:00:10.665Z,47.30
2017-10-20T12:02:38.185Z,47.00
2017-10-20T12:05:05.687Z,47.20
2017-10-20T12:07:33.575Z,46.90
2017-10-20T12:10:01.075Z,47.70
2017-10-20T12:12:28.996Z,47.30
2017-10-20T12:14:56.503Z,46.60
2017-10-20T12:19:53.287Z,46.90
2017-10-20T12:22:21.178Z,45.90
2017-10-20T12:24:48.692Z,46.20
2017-10-20T12:27:16.192Z,46.60
2017-10-20T12:29:43.698Z,46.50
2017-10-20T12:32:11.963Z,47.00
2017-10-20T12:34:39.874Z,45.90
2017-10-20T12:37:07.371Z,46.60
2017-10-20T12:39:35.635Z,45.70
2017-10-20T12:42:03.136Z,46.20
2017-10-20T12:44:31.058Z,45.20
2017-10-20T12:47:00.067Z,44.60
2017-10-20T12:49:27.987Z,44.00
2017-10-20T12:51:56.272Z,44.00
2017-10-20T12:54:23.901Z,44.30
2017-10-20T12:56:52.170Z,44.40
2017-10-20T12:59:20.109Z,43.10
2017-10-20T13:01:48.380Z,43.50
2017-10-20T13:06:44.720Z,43.60
2017-10-20T13:09:13.071Z,44.40
2017-10-20T13:11:41.330Z,44.20
2017-10-20T13:14:08.857Z,43.70
2017-10-20T13:16:36.350Z,44.50
2017-10-20T13:19:03.852Z,44.30
2017-10-20T13:24:00.214Z,44.70
2017-10-20T13:26:27.711Z,44.50
2017-10-20T13:28:55.215Z,44.30
2017-10-20T13:31:22.759Z,44.60
2017-10-20T13:33:50.263Z,43.70
2017-10-20T13:36:17.811Z,43.10
2017-10-20T13:38:45.313Z,44.30
2017-10-20T13:41:14.339Z,45.10
2017-10-20T13:43:43.353Z,44.20
2017-10-20T13:46:10.857Z,44.80
2017-10-20T13:48:38.368Z,43.90
2017-10-20T13:51:05.860Z,43.10
2017-10-20T13:53:33.355Z,44.20
2017-10-20T13:56:00.855Z,44.40
2017-10-20T13:58:28.779Z,43.80
2017-10-20T14:00:56.283Z,43.90
2017-10-20T14:03:24.589Z,43.50
2017-10-20T14:05:52.083Z,43.90
2017-10-20T14:13:18.472Z,44.40
2017-10-20T14:15:46.749Z,44.40
2017-10-20T14:18:14.262Z,43.40
2017-10-20T14:20:42.157Z,43.30
2017-10-20T14:23:09.847Z,43.70
2017-10-20T14:25:37.343Z,44.00
2017-10-20T14:28:04.847Z,44.60
2017-10-20T14:30:33.111Z,44.80
2017-10-20T14:33:01.375Z,44.70
2017-10-20T14:35:30.008Z,44.80
2017-10-20T14:37:57.507Z,44.90
2017-10-20T14:40:24.999Z,44.70
2017-10-20T14:42:52.514Z,44.70
2017-10-20T14:45:20.042Z,44.50
2017-10-20T14:47:47.532Z,45.80
2017-10-20T14:50:15.836Z,45.80
2017-10-20T14:52:43.360Z,45.10
2017-10-20T14:55:12.387Z,45.40
2017-10-20T14:57:39.888Z,44.70
2017-10-20T15:00:07.514Z,44.40
2017-10-20T15:02:35.031Z,45.30
2017-10-20T15:05:03.326Z,45.90
2017-10-20T15:07:30.823Z,45.00
2017-10-20T15:09:59.826Z,45.10
2017-10-20T15:12:28.460Z,45.50
2017-10-20T15:14:57.573Z,44.60
2017-10-20T15:17:25.075Z,44.40
2017-10-20T15:19:53.345Z,45.50
2017-10-20T15:22:22.358Z,45.80
2017-10-20T15:24:49.868Z,45.80
2017-10-20T15:27:17.363Z,45.40
2017-10-20T15:29:44.864Z,45.70
2017-10-20T15:32:13.165Z,45.60
2017-10-20T15:34:41.062Z,46.30
2017-10-20T15:37:08.559Z,45.80
2017-10-20T15:39:36.055Z,45.80
2017-10-20T15:42:03.959Z,46.00
2017-10-20T15:44:32.254Z,46.90
2017-10-20T15:46:59.747Z,48.00
2017-10-20T15:49:27.267Z,49.00
2017-10-20T15:51:55.155Z,49.60
2017-10-20T15:54:23.052Z,50.00
2017-10-20T15:56:52.689Z,50.20
2017-10-20T15:59:20.188Z,50.70
2017-10-20T16:01:48.460Z,51.50
2017-10-20T16:04:15.982Z,51.20
2017-10-20T16:06:43.479Z,51.50
2017-10-20T16:09:12.494Z,51.50
2017-10-20T16:11:40.007Z,51.70
2017-10-20T16:14:08.319Z,52.50
2017-10-20T16:16:35.815Z,52.20
2017-10-20T16:19:03.322Z,52.20
2017-10-20T16:21:30.830Z,52.00
2017-10-20T16:23:58.335Z,52.30
2017-10-20T16:26:25.839Z,52.60
2017-10-20T16:28:54.479Z,52.60
2017-10-20T16:31:21.971Z,52.70
2017-10-20T16:33:49.950Z,52.60
2017-10-20T16:36:17.439Z,52.80
2017-10-20T16:38:45.343Z,52.70
2017-10-20T16:41:12.843Z,52.20
2017-10-20T16:43:41.851Z,52.00
2017-10-20T16:46:09.496Z,51.90
2017-10-20T16:48:37.815Z,51.70
2017-10-20T16:51:06.080Z,51.70
2017-10-20T16:53:33.976Z,51.80
2017-10-20T16:56:01.503Z,52.00
2017-10-20T16:58:29.021Z,51.80
2017-10-20T17:00:56.988Z,52.00
2017-10-20T17:03:24.911Z,52.00
2017-10-20T17:05:53.831Z,51.90
2017-10-20T17:08:21.721Z,51.70
2017-10-20T17:15:47.000Z,52.20
2017-10-20T17:18:14.495Z,52.10
2017-10-20T17:20:42.000Z,52.40
2017-10-20T17:23:09.517Z,52.80
2017-10-20T17:25:37.027Z,53.00
2017-10-20T17:28:05.655Z,52.80
2017-10-20T17:30:33.152Z,52.50
2017-10-20T17:33:00.664Z,52.50
2017-10-20T17:35:28.567Z,52.40
2017-10-20T17:37:56.079Z,52.80
2017-10-20T17:40:23.586Z,52.90
2017-10-20T17:42:51.863Z,52.80
2017-10-20T17:45:19.759Z,52.90
2017-10-20T17:47:48.055Z,53.20
2017-10-20T17:50:15.699Z,53.40
2017-10-20T17:52:44.497Z,53.30
2017-10-20T18:00:10.342Z,53.20
2017-10-20T18:05:07.587Z,53.10
2017-10-20T18:07:35.852Z,53.20
2017-10-20T18:12:33.508Z,53.70
2017-10-20T18:15:01.788Z,54.10
2017-10-20T18:19:58.227Z,53.70
2017-10-20T18:22:25.728Z,53.80
2017-10-20T18:24:53.683Z,53.90
2017-10-20T18:27:21.235Z,53.90
2017-10-20T18:29:48.755Z,54.00
2017-10-20T18:32:17.022Z,54.30
2017-10-20T18:34:44.512Z,54.00
2017-10-20T18:37:13.251Z,54.10
2017-10-20T18:39:42.266Z,54.60
2017-10-20T18:42:10.572Z,54.70
2017-10-20T18:44:39.576Z,54.00
2017-10-20T18:47:07.612Z,54.10
2017-10-20T18:49:35.107Z,54.20
2017-10-20T18:52:03.032Z,54.20
2017-10-20T18:54:30.559Z,54.10
2017-10-20T18:56:58.844Z,54.60
2017-10-20T18:59:26.343Z,54.20
2017-10-20T19:01:54.624Z,54.20
2017-10-20T19:04:22.123Z,54.20
2017-10-20T19:06:50.814Z,54.30
2017-10-20T19:09:20.278Z,54.30
2017-10-20T19:14:17.177Z,54.10
2017-10-20T19:16:44.684Z,54.40
2017-10-20T19:21:41.188Z,54.40
2017-10-20T19:24:08.694Z,54.60
2017-10-20T19:26:36.205Z,54.80
2017-10-20T19:29:04.835Z,55.50
2017-10-20T19:31:32.395Z,55.10
2017-10-20T19:34:00.503Z,55.30
2017-10-20T19:36:28.804Z,55.50
2017-10-20T19:38:56.386Z,55.50
2017-10-20T19:41:23.883Z,55.60
2017-10-20T19:43:51.656Z,55.60
2017-10-20T19:46:19.169Z,55.80
2017-10-20T19:48:46.691Z,55.90
2017-10-20T19:51:14.192Z,55.90
2017-10-20T19:53:42.465Z,56.50
2017-10-20T19:56:10.456Z,56.00
2017-10-20T19:58:38.111Z,56.10
2017-10-20T20:03:34.469Z,56.10
2017-10-20T20:06:01.979Z,56.20
2017-10-20T20:10:59.146Z,56.90
2017-10-20T20:13:27.804Z,56.40
2017-10-20T20:18:24.388Z,56.20
2017-10-20T20:20:52.663Z,56.80
2017-10-20T20:25:49.015Z,56.50
2017-10-20T20:28:16.914Z,56.60
2017-10-20T20:30:45.673Z,56.70
2017-10-20T20:33:16.855Z,56.70
2017-10-20T20:35:44.348Z,56.80
2017-10-20T20:38:12.648Z,57.30
2017-10-20T20:40:40.156Z,56.90
2017-10-20T20:45:36.740Z,57.10
2017-10-20T20:48:04.647Z,57.30
2017-10-20T20:50:32.184Z,57.30
2017-10-20T20:52:59.720Z,57.40
2017-10-20T20:55:28.350Z,57.40
2017-10-20T20:57:55.871Z,57.50
2017-10-20T21:00:23.395Z,57.50
2017-10-20T21:02:51.795Z,58.00
2017-10-20T21:05:19.453Z,57.40
2017-10-20T21:07:46.970Z,57.50
2017-10-20T21:10:15.375Z,58.00
2017-10-20T21:12:43.655Z,57.50
2017-10-20T21:15:11.316Z,57.50
2017-10-20T21:17:39.387Z,57.70
2017-10-20T21:20:07.659Z,57.60
2017-10-20T21:22:35.200Z,58.00
2017-10-20T21:25:03.267Z,58.10
2017-10-20T21:27:31.235Z,58.00
2017-10-20T21:29:59.307Z,58.00
2017-10-20T21:32:27.783Z,58.20
2017-10-20T21:34:55.859Z,58.30
2017-10-20T21:37:23.352Z,58.40
2017-10-20T21:39:50.963Z,58.40
2017-10-20T21:42:18.629Z,58.60
2017-10-20T21:44:46.132Z,58.60
2017-10-20T21:47:13.658Z,58.80
2017-10-20T21:49:41.184Z,58.90
2017-10-20T21:52:09.256Z,58.90
2017-10-20T21:54:36.756Z,58.80
2017-10-20T21:57:05.197Z,58.80
2017-10-20T21:59:32.723Z,58.90
2017-10-20T22:02:01.538Z,59.00
2017-10-20T22:04:29.039Z,59.00
2017-10-20T22:06:56.639Z,59.10
2017-10-20T22:09:24.717Z,59.00
2017-10-20T22:11:52.382Z,59.20
2017-10-20T22:14:19.875Z,59.30
2017-10-20T22:16:47.381Z,59.30
2017-10-20T22:19:15.343Z,59.30
2017-10-20T22:24:11.695Z,59.30
2017-10-20T22:26:39.186Z,59.40
2017-10-20T22:29:06.804Z,59.60
2017-10-20T22:31:35.081Z,59.70
2017-10-20T22:34:02.645Z,59.80
2017-10-20T22:36:31.003Z,59.70
2017-10-20T22:38:58.523Z,59.60
2017-10-20T22:41:26.043Z,59.70
2017-10-20T22:43:53.586Z,60.00
2017-10-20T22:46:21.223Z,59.90
2017-10-20T22:48:48.734Z,59.90
2017-10-20T22:51:16.341Z,60.10
2017-10-20T22:53:44.422Z,60.10
2017-10-20T22:56:12.709Z,60.20
2017-10-20T22:58:40.227Z,60.40
2017-10-20T23:01:08.871Z,60.40
2017-10-20T23:03:37.187Z,61.10
2017-10-20T23:06:05.083Z,60.60
2017-10-20T23:08:32.628Z,60.80
2017-10-20T23:11:00.282Z,60.70
2017-10-20T23:13:27.801Z,60.50
2017-10-20T23:15:56.435Z,60.60
2017-10-20T23:18:23.955Z,60.70
2017-10-20T23:20:51.851Z,61.00
2017-10-20T23:23:20.522Z,60.90
2017-10-20T23:25:48.071Z,60.70
2017-10-20T23:28:15.647Z,60.80
2017-10-20T23:30:43.138Z,60.70
2017-10-20T23:33:11.054Z,60.40
2017-10-20T23:35:38.548Z,60.90
2017-10-20T23:38:06.070Z,61.20
2017-10-20T23:40:33.559Z,61.30
2017-10-20T23:43:01.076Z,61.50
2017-10-20T23:45:29.342Z,61.40
2017-10-20T23:47:56.851Z,61.30
2017-10-20T23:50:24.342Z,61.40
2017-10-20T23:52:51.840Z,61.70
2017-10-20T23:55:20.175Z,61.60
2017-10-20T23:57:47.674Z,61.60
